sensor_id;sensor_type;location;lat;lon;timestamp;P1;durP1;ratioP1;P2;durP2;ratioP2
36185;SDS011;22228;53.222;7.446;2022-08-05T00:02:18;2.63;;;2.47;;
36185;SDS011;22228;53.222;7.446;2022-08-05T00:04:40;3.93;;;2.67;;
36185;SDS011;22228;53.222;7.446;2022-08-05T00:07:04;4.37;;;2.87;;
36185;SDS011;22228;53.222;7.446;2022-08-05T00:09:46;7.17;;;4.27;;
36185;SDS011;22228;53.222;7.446;2022-08-05T00:12:08;7.87;;;4.50;;
36185;SDS011;22228;53.222;7.446;2022-08-05T00:14:32;5.13;;;4.03;;
36185;SDS011;22228;53.222;7.446;2022-08-05T00:16:54;7.93;;;4.50;;
36185;SDS011;22228;53.222;7.446;2022-08-05T00:19:18;7.47;;;4.83;;
36185;SDS011;22228;53.222;7.446;2022-08-05T00:21:42;8.50;;;4.97;;
36185;SDS011;22228;53.222;7.446;2022-08-05T00:24:04;7.40;;;4.67;;
36185;SDS011;22228;53.222;7.446;2022-08-05T00:26:35;8.27;;;5.53;;
36185;SDS011;22228;53.222;7.446;2022-08-05T00:28:57;7.93;;;5.70;;
36185;SDS011;22228;53.222;7.446;2022-08-05T00:31:19;8.30;;;5.63;;
36185;SDS011;22228;53.222;7.446;2022-08-05T00:34:01;8.80;;;5.70;;
36185;SDS011;22228;53.222;7.446;2022-08-05T00:36:45;8.30;;;6.53;;
36185;SDS011;22228;53.222;7.446;2022-08-05T00:39:28;11.40;;;6.43;;
36185;SDS011;22228;53.222;7.446;2022-08-05T00:42:01;9.03;;;6.67;;
36185;SDS011;22228;53.222;7.446;2022-08-05T00:44:23;8.93;;;6.50;;
36185;SDS011;22228;53.222;7.446;2022-08-05T00:46:50;9.20;;;6.27;;
36185;SDS011;22228;53.222;7.446;2022-08-05T00:49:23;7.40;;;6.70;;
36185;SDS011;22228;53.222;7.446;2022-08-05T00:51:53;8.70;;;6.50;;
36185;SDS011;22228;53.222;7.446;2022-08-05T00:54:16;9.27;;;6.80;;
36185;SDS011;22228;53.222;7.446;2022-08-05T00:56:39;8.37;;;6.43;;
36185;SDS011;22228;53.222;7.446;2022-08-05T00:59:11;7.80;;;6.93;;
36185;SDS011;22228;53.222;7.446;2022-08-05T01:01:33;8.87;;;6.90;;
36185;SDS011;22228;53.222;7.446;2022-08-05T01:04:08;7.03;;;6.30;;
36185;SDS011;22228;53.222;7.446;2022-08-05T01:06:34;6.97;;;6.37;;
36185;SDS011;22228;53.222;7.446;2022-08-05T01:08:57;7.50;;;6.80;;
36185;SDS011;22228;53.222;7.446;2022-08-05T01:11:23;6.87;;;6.17;;
36185;SDS011;22228;53.222;7.446;2022-08-05T01:14:02;11.00;;;7.50;;
36185;SDS011;22228;53.222;7.446;2022-08-05T01:16:29;9.70;;;7.30;;
36185;SDS011;22228;53.222;7.446;2022-08-05T01:18:59;8.57;;;7.40;;
36185;SDS011;22228;53.222;7.446;2022-08-05T01:21:33;11.00;;;7.60;;
36185;SDS011;22228;53.222;7.446;2022-08-05T01:24:18;9.93;;;6.33;;
36185;SDS011;22228;53.222;7.446;2022-08-05T01:26:58;8.03;;;6.37;;
36185;SDS011;22228;53.222;7.446;2022-08-05T01:29:40;10.80;;;7.53;;
36185;SDS011;22228;53.222;7.446;2022-08-05T01:32:08;7.47;;;6.70;;
36185;SDS011;22228;53.222;7.446;2022-08-05T01:34:40;8.07;;;6.43;;
36185;SDS011;22228;53.222;7.446;2022-08-05T01:37:10;10.77;;;6.80;;
36185;SDS011;22228;53.222;7.446;2022-08-05T01:39:45;8.67;;;7.13;;
36185;SDS011;22228;53.222;7.446;2022-08-05T01:42:10;9.27;;;8.17;;
36185;SDS011;22228;53.222;7.446;2022-08-05T01:44:34;7.57;;;6.63;;
36185;SDS011;22228;53.222;7.446;2022-08-05T01:46:58;9.23;;;6.87;;
36185;SDS011;22228;53.222;7.446;2022-08-05T01:49:24;8.50;;;7.57;;
36185;SDS011;22228;53.222;7.446;2022-08-05T01:52:09;7.63;;;6.90;;
36185;SDS011;22228;53.222;7.446;2022-08-05T01:54:39;8.53;;;6.90;;
36185;SDS011;22228;53.222;7.446;2022-08-05T01:57:06;9.23;;;7.13;;
36185;SDS011;22228;53.222;7.446;2022-08-05T01:59:50;7.93;;;6.97;;
36185;SDS011;22228;53.222;7.446;2022-08-05T02:02:20;10.90;;;7.70;;
36185;SDS011;22228;53.222;7.446;2022-08-05T02:04:47;9.57;;;7.63;;
36185;SDS011;22228;53.222;7.446;2022-08-05T02:07:12;9.17;;;8.20;;
36185;SDS011;22228;53.222;7.446;2022-08-05T02:09:42;7.63;;;6.83;;
36185;SDS011;22228;53.222;7.446;2022-08-05T02:12:07;7.90;;;6.30;;
36185;SDS011;22228;53.222;7.446;2022-08-05T02:14:39;7.47;;;6.63;;
36185;SDS011;22228;53.222;7.446;2022-08-05T02:17:10;8.77;;;6.83;;
36185;SDS011;22228;53.222;7.446;2022-08-05T02:19:59;10.80;;;7.23;;
36185;SDS011;22228;53.222;7.446;2022-08-05T02:22:25;8.47;;;6.23;;
36185;SDS011;22228;53.222;7.446;2022-08-05T02:24:50;9.47;;;7.57;;
36185;SDS011;22228;53.222;7.446;2022-08-05T02:27:19;9.57;;;7.33;;
36185;SDS011;22228;53.222;7.446;2022-08-05T02:30:03;10.83;;;7.07;;
36185;SDS011;22228;53.222;7.446;2022-08-05T02:32:28;8.33;;;6.83;;
36185;SDS011;22228;53.222;7.446;2022-08-05T02:34:54;9.20;;;7.23;;
36185;SDS011;22228;53.222;7.446;2022-08-05T02:37:22;9.50;;;6.90;;
36185;SDS011;22228;53.222;7.446;2022-08-05T02:39:45;9.47;;;6.97;;
36185;SDS011;22228;53.222;7.446;2022-08-05T02:42:12;9.13;;;8.23;;
36185;SDS011;22228;53.222;7.446;2022-08-05T02:44:46;8.10;;;7.30;;
36185;SDS011;22228;53.222;7.446;2022-08-05T02:47:11;11.67;;;8.07;;
36185;SDS011;22228;53.222;7.446;2022-08-05T02:49:36;12.13;;;9.37;;
36185;SDS011;22228;53.222;7.446;2022-08-05T02:52:04;11.20;;;9.53;;
36185;SDS011;22228;53.222;7.446;2022-08-05T02:54:30;11.17;;;9.47;;
36185;SDS011;22228;53.222;7.446;2022-08-05T02:56:56;11.37;;;10.17;;
36185;SDS011;22228;53.222;7.446;2022-08-05T02:59:19;11.27;;;8.90;;
36185;SDS011;22228;53.222;7.446;2022-08-05T03:01:47;12.93;;;9.37;;
36185;SDS011;22228;53.222;7.446;2022-08-05T03:04:11;12.13;;;9.33;;
36185;SDS011;22228;53.222;7.446;2022-08-05T03:06:35;13.87;;;9.97;;
36185;SDS011;22228;53.222;7.446;2022-08-05T03:09:18;12.47;;;8.87;;
36185;SDS011;22228;53.222;7.446;2022-08-05T03:11:59;11.53;;;9.17;;
36185;SDS011;22228;53.222;7.446;2022-08-05T03:14:21;10.43;;;8.93;;
36185;SDS011;22228;53.222;7.446;2022-08-05T03:16:45;11.50;;;9.10;;
36185;SDS011;22228;53.222;7.446;2022-08-05T03:19:08;9.53;;;8.60;;
36185;SDS011;22228;53.222;7.446;2022-08-05T03:21:48;10.63;;;8.43;;
36185;SDS011;22228;53.222;7.446;2022-08-05T03:24:10;9.43;;;8.53;;
36185;SDS011;22228;53.222;7.446;2022-08-05T03:26:34;11.00;;;9.73;;
36185;SDS011;22228;53.222;7.446;2022-08-05T03:28:58;14.40;;;9.60;;
36185;SDS011;22228;53.222;7.446;2022-08-05T03:31:21;10.03;;;8.37;;
36185;SDS011;22228;53.222;7.446;2022-08-05T03:34:03;9.53;;;8.50;;
36185;SDS011;22228;53.222;7.446;2022-08-05T03:36:25;10.87;;;9.30;;
36185;SDS011;22228;53.222;7.446;2022-08-05T03:38:50;9.37;;;8.47;;
36185;SDS011;22228;53.222;7.446;2022-08-05T03:41:14;11.13;;;9.53;;
36185;SDS011;22228;53.222;7.446;2022-08-05T03:43:42;10.53;;;9.27;;
36185;SDS011;22228;53.222;7.446;2022-08-05T03:46:26;10.33;;;9.37;;
36185;SDS011;22228;53.222;7.446;2022-08-05T03:48:51;9.47;;;8.57;;
36185;SDS011;22228;53.222;7.446;2022-08-05T03:51:14;10.80;;;8.43;;
36185;SDS011;22228;53.222;7.446;2022-08-05T03:54:02;10.87;;;9.17;;
36185;SDS011;22228;53.222;7.446;2022-08-05T03:56:48;12.93;;;9.90;;
36185;SDS011;22228;53.222;7.446;2022-08-05T03:59:12;11.03;;;9.23;;
36185;SDS011;22228;53.222;7.446;2022-08-05T04:01:41;9.57;;;8.57;;
36185;SDS011;22228;53.222;7.446;2022-08-05T04:04:08;8.40;;;7.60;;
36185;SDS011;22228;53.222;7.446;2022-08-05T04:06:40;12.03;;;9.13;;
36185;SDS011;22228;53.222;7.446;2022-08-05T04:09:10;12.93;;;8.97;;
36185;SDS011;22228;53.222;7.446;2022-08-05T04:11:40;13.20;;;9.00;;
36185;SDS011;22228;53.222;7.446;2022-08-05T04:14:11;10.30;;;8.73;;
36185;SDS011;22228;53.222;7.446;2022-08-05T04:16:37;12.43;;;8.47;;
36185;SDS011;22228;53.222;7.446;2022-08-05T04:19:02;9.90;;;8.77;;
36185;SDS011;22228;53.222;7.446;2022-08-05T04:21:30;13.10;;;9.03;;
36185;SDS011;22228;53.222;7.446;2022-08-05T04:24:12;12.47;;;9.87;;
36185;SDS011;22228;53.222;7.446;2022-08-05T04:26:41;10.67;;;8.70;;
36185;SDS011;22228;53.222;7.446;2022-08-05T04:29:06;13.20;;;8.93;;
36185;SDS011;22228;53.222;7.446;2022-08-05T04:31:28;9.90;;;8.90;;
36185;SDS011;22228;53.222;7.446;2022-08-05T04:33:58;9.70;;;8.70;;
36185;SDS011;22228;53.222;7.446;2022-08-05T04:36:42;9.13;;;7.60;;
36185;SDS011;22228;53.222;7.446;2022-08-05T04:39:09;9.43;;;8.43;;
36185;SDS011;22228;53.222;7.446;2022-08-05T04:41:32;11.33;;;8.17;;
36185;SDS011;22228;53.222;7.446;2022-08-05T04:43:58;9.57;;;8.57;;
36185;SDS011;22228;53.222;7.446;2022-08-05T04:46:28;9.90;;;8.90;;
36185;SDS011;22228;53.222;7.446;2022-08-05T04:48:51;9.93;;;9.07;;
36185;SDS011;22228;53.222;7.446;2022-08-05T04:51:13;9.77;;;8.50;;
36185;SDS011;22228;53.222;7.446;2022-08-05T04:53:39;11.60;;;8.47;;
36185;SDS011;22228;53.222;7.446;2022-08-05T04:56:01;9.23;;;8.20;;
36185;SDS011;22228;53.222;7.446;2022-08-05T04:58:43;11.00;;;8.23;;
36185;SDS011;22228;53.222;7.446;2022-08-05T05:01:06;8.93;;;7.77;;
36185;SDS011;22228;53.222;7.446;2022-08-05T05:03:28;8.00;;;7.37;;
36185;SDS011;22228;53.222;7.446;2022-08-05T05:06:01;8.57;;;7.27;;
36185;SDS011;22228;53.222;7.446;2022-08-05T05:08:45;7.13;;;6.53;;
36185;SDS011;22228;53.222;7.446;2022-08-05T05:11:09;7.63;;;5.57;;
36185;SDS011;22228;53.222;7.446;2022-08-05T05:13:34;7.97;;;5.80;;
36185;SDS011;22228;53.222;7.446;2022-08-05T05:16:03;5.60;;;5.07;;
36185;SDS011;22228;53.222;7.446;2022-08-05T05:18:26;5.87;;;5.10;;
36185;SDS011;22228;53.222;7.446;2022-08-05T05:20:53;5.00;;;4.60;;
36185;SDS011;22228;53.222;7.446;2022-08-05T05:23:18;8.33;;;4.67;;
36185;SDS011;22228;53.222;7.446;2022-08-05T05:25:41;7.27;;;4.70;;
36185;SDS011;22228;53.222;7.446;2022-08-05T05:28:07;4.33;;;3.93;;
36185;SDS011;22228;53.222;7.446;2022-08-05T05:30:29;4.10;;;3.73;;
36185;SDS011;22228;53.222;7.446;2022-08-05T05:32:52;3.87;;;3.47;;
36185;SDS011;22228;53.222;7.446;2022-08-05T05:35:15;4.53;;;4.00;;
36185;SDS011;22228;53.222;7.446;2022-08-05T05:37:46;5.57;;;4.00;;
36185;SDS011;22228;53.222;7.446;2022-08-05T05:40:21;3.80;;;3.47;;
36185;SDS011;22228;53.222;7.446;2022-08-05T05:42:49;3.67;;;3.33;;
36185;SDS011;22228;53.222;7.446;2022-08-05T05:45:12;4.70;;;3.60;;
36185;SDS011;22228;53.222;7.446;2022-08-05T05:47:35;4.90;;;3.20;;
36185;SDS011;22228;53.222;7.446;2022-08-05T05:50:17;5.57;;;3.20;;
36185;SDS011;22228;53.222;7.446;2022-08-05T05:52:40;2.93;;;2.67;;
36185;SDS011;22228;53.222;7.446;2022-08-05T05:55:06;2.77;;;2.40;;
36185;SDS011;22228;53.222;7.446;2022-08-05T05:57:33;3.53;;;3.10;;
36185;SDS011;22228;53.222;7.446;2022-08-05T06:00:14;4.37;;;2.90;;
36185;SDS011;22228;53.222;7.446;2022-08-05T06:02:39;3.13;;;2.87;;
36185;SDS011;22228;53.222;7.446;2022-08-05T06:05:02;3.37;;;2.30;;
36185;SDS011;22228;53.222;7.446;2022-08-05T06:07:36;2.87;;;2.33;;
36185;SDS011;22228;53.222;7.446;2022-08-05T06:10:02;3.00;;;2.17;;
36185;SDS011;22228;53.222;7.446;2022-08-05T06:12:30;4.17;;;2.10;;
36185;SDS011;22228;53.222;7.446;2022-08-05T06:14:52;4.83;;;2.43;;
36185;SDS011;22228;53.222;7.446;2022-08-05T06:17:21;4.67;;;1.87;;
36185;SDS011;22228;53.222;7.446;2022-08-05T06:19:50;3.30;;;1.90;;
36185;SDS011;22228;53.222;7.446;2022-08-05T06:22:21;3.13;;;1.73;;
36185;SDS011;22228;53.222;7.446;2022-08-05T06:24:45;3.20;;;1.83;;
36185;SDS011;22228;53.222;7.446;2022-08-05T06:27:08;2.17;;;1.60;;
36185;SDS011;22228;53.222;7.446;2022-08-05T06:29:50;3.00;;;1.50;;
36185;SDS011;22228;53.222;7.446;2022-08-05T06:32:27;3.33;;;1.53;;
36185;SDS011;22228;53.222;7.446;2022-08-05T06:34:50;3.20;;;1.60;;
36185;SDS011;22228;53.222;7.446;2022-08-05T06:37:16;3.57;;;1.70;;
36185;SDS011;22228;53.222;7.446;2022-08-05T06:39:58;1.40;;;1.30;;
36185;SDS011;22228;53.222;7.446;2022-08-05T06:42:22;3.73;;;1.80;;
36185;SDS011;22228;53.222;7.446;2022-08-05T06:44:44;4.70;;;1.73;;
36185;SDS011;22228;53.222;7.446;2022-08-05T06:47:08;5.20;;;1.70;;
36185;SDS011;22228;53.222;7.446;2022-08-05T06:49:52;3.70;;;1.57;;
36185;SDS011;22228;53.222;7.446;2022-08-05T06:52:24;2.13;;;1.23;;
36185;SDS011;22228;53.222;7.446;2022-08-05T06:55:00;2.37;;;1.67;;
36185;SDS011;22228;53.222;7.446;2022-08-05T06:57:22;4.90;;;1.30;;
36185;SDS011;22228;53.222;7.446;2022-08-05T07:00:04;3.33;;;1.50;;
36185;SDS011;22228;53.222;7.446;2022-08-05T07:02:29;3.20;;;1.40;;
36185;SDS011;22228;53.222;7.446;2022-08-05T07:04:56;3.20;;;1.20;;
36185;SDS011;22228;53.222;7.446;2022-08-05T07:07:18;1.90;;;1.40;;
36185;SDS011;22228;53.222;7.446;2022-08-05T07:09:54;3.97;;;1.50;;
36185;SDS011;22228;53.222;7.446;2022-08-05T07:12:17;3.33;;;1.20;;
36185;SDS011;22228;53.222;7.446;2022-08-05T07:14:56;3.53;;;1.13;;
36185;SDS011;22228;53.222;7.446;2022-08-05T07:17:56;2.43;;;1.20;;
36185;SDS011;22228;53.222;7.446;2022-08-05T07:20:31;2.20;;;1.00;;
36185;SDS011;22228;53.222;7.446;2022-08-05T07:22:58;2.43;;;0.70;;
36185;SDS011;22228;53.222;7.446;2022-08-05T07:25:23;3.33;;;1.00;;
36185;SDS011;22228;53.222;7.446;2022-08-05T07:28:06;1.93;;;0.90;;
36185;SDS011;22228;53.222;7.446;2022-08-05T07:30:36;2.40;;;0.80;;
36185;SDS011;22228;53.222;7.446;2022-08-05T07:33:00;2.63;;;0.87;;
36185;SDS011;22228;53.222;7.446;2022-08-05T07:35:28;2.13;;;0.80;;
36185;SDS011;22228;53.222;7.446;2022-08-05T07:38:12;1.13;;;0.70;;
36185;SDS011;22228;53.222;7.446;2022-08-05T07:40:54;2.10;;;0.80;;
36185;SDS011;22228;53.222;7.446;2022-08-05T07:43:36;1.77;;;0.70;;
36185;SDS011;22228;53.222;7.446;2022-08-05T07:45:58;2.67;;;0.87;;
36185;SDS011;22228;53.222;7.446;2022-08-05T07:48:22;1.30;;;0.70;;
36185;SDS011;22228;53.222;7.446;2022-08-05T07:51:04;4.80;;;0.83;;
36185;SDS011;22228;53.222;7.446;2022-08-05T07:53:47;4.27;;;0.80;;
36185;SDS011;22228;53.222;7.446;2022-08-05T07:56:11;2.60;;;0.80;;
36185;SDS011;22228;53.222;7.446;2022-08-05T07:58:53;1.87;;;0.60;;
36185;SDS011;22228;53.222;7.446;2022-08-05T08:01:18;2.87;;;0.67;;
36185;SDS011;22228;53.222;7.446;2022-08-05T08:03:49;2.00;;;0.70;;
36185;SDS011;22228;53.222;7.446;2022-08-05T08:06:11;1.37;;;0.37;;
36185;SDS011;22228;53.222;7.446;2022-08-05T08:08:33;3.20;;;0.80;;
36185;SDS011;22228;53.222;7.446;2022-08-05T08:10:58;3.07;;;0.60;;
36185;SDS011;22228;53.222;7.446;2022-08-05T08:13:22;2.13;;;0.87;;
36185;SDS011;22228;53.222;7.446;2022-08-05T08:15:48;4.03;;;0.90;;
36185;SDS011;22228;53.222;7.446;2022-08-05T08:18:30;1.63;;;0.80;;
36185;SDS011;22228;53.222;7.446;2022-08-05T08:20:53;1.50;;;0.80;;
36185;SDS011;22228;53.222;7.446;2022-08-05T08:23:22;3.47;;;0.60;;
36185;SDS011;22228;53.222;7.446;2022-08-05T08:26:06;2.10;;;0.70;;
36185;SDS011;22228;53.222;7.446;2022-08-05T08:28:28;2.13;;;0.60;;
36185;SDS011;22228;53.222;7.446;2022-08-05T08:30:56;2.30;;;0.50;;
36185;SDS011;22228;53.222;7.446;2022-08-05T08:33:20;1.43;;;0.60;;
36185;SDS011;22228;53.222;7.446;2022-08-05T08:35:46;1.90;;;0.63;;
36185;SDS011;22228;53.222;7.446;2022-08-05T08:38:23;3.13;;;0.70;;
36185;SDS011;22228;53.222;7.446;2022-08-05T08:40:57;2.70;;;0.70;;
36185;SDS011;22228;53.222;7.446;2022-08-05T08:43:22;4.10;;;0.60;;
36185;SDS011;22228;53.222;7.446;2022-08-05T08:46:05;3.13;;;0.63;;
36185;SDS011;22228;53.222;7.446;2022-08-05T08:48:34;0.80;;;0.50;;
36185;SDS011;22228;53.222;7.446;2022-08-05T08:51:21;1.30;;;0.50;;
36185;SDS011;22228;53.222;7.446;2022-08-05T08:54:04;1.60;;;0.60;;
36185;SDS011;22228;53.222;7.446;2022-08-05T08:56:26;2.53;;;0.60;;
36185;SDS011;22228;53.222;7.446;2022-08-05T08:58:49;0.97;;;0.40;;
36185;SDS011;22228;53.222;7.446;2022-08-05T09:01:12;0.47;;;0.43;;
36185;SDS011;22228;53.222;7.446;2022-08-05T09:03:36;2.37;;;0.60;;
36185;SDS011;22228;53.222;7.446;2022-08-05T09:06:05;1.70;;;0.60;;
36185;SDS011;22228;53.222;7.446;2022-08-05T09:08:33;1.63;;;0.50;;
36185;SDS011;22228;53.222;7.446;2022-08-05T09:10:59;2.97;;;0.70;;
36185;SDS011;22228;53.222;7.446;2022-08-05T09:13:22;2.37;;;0.50;;
36185;SDS011;22228;53.222;7.446;2022-08-05T09:15:52;1.03;;;0.47;;
36185;SDS011;22228;53.222;7.446;2022-08-05T09:18:16;1.37;;;0.43;;
36185;SDS011;22228;53.222;7.446;2022-08-05T09:20:39;3.40;;;0.60;;
36185;SDS011;22228;53.222;7.446;2022-08-05T09:23:04;2.20;;;0.43;;
36185;SDS011;22228;53.222;7.446;2022-08-05T09:25:40;2.20;;;0.67;;
36185;SDS011;22228;53.222;7.446;2022-08-05T09:28:23;2.87;;;0.50;;
36185;SDS011;22228;53.222;7.446;2022-08-05T09:30:54;1.27;;;0.57;;
36185;SDS011;22228;53.222;7.446;2022-08-05T09:33:18;0.60;;;0.53;;
36185;SDS011;22228;53.222;7.446;2022-08-05T09:35:51;4.33;;;0.60;;
36185;SDS011;22228;53.222;7.446;2022-08-05T09:38:14;2.03;;;0.40;;
36185;SDS011;22228;53.222;7.446;2022-08-05T09:40:47;0.77;;;0.50;;
36185;SDS011;22228;53.222;7.446;2022-08-05T09:43:24;2.70;;;0.43;;
36185;SDS011;22228;53.222;7.446;2022-08-05T09:46:03;1.27;;;0.50;;
36185;SDS011;22228;53.222;7.446;2022-08-05T09:48:35;2.20;;;0.70;;
36185;SDS011;22228;53.222;7.446;2022-08-05T09:50:58;3.87;;;0.70;;
36185;SDS011;22228;53.222;7.446;2022-08-05T09:53:22;1.40;;;0.50;;
36185;SDS011;22228;53.222;7.446;2022-08-05T09:56:05;4.97;;;0.60;;
36185;SDS011;22228;53.222;7.446;2022-08-05T09:58:32;1.27;;;0.40;;
36185;SDS011;22228;53.222;7.446;2022-08-05T10:00:57;3.83;;;0.60;;
36185;SDS011;22228;53.222;7.446;2022-08-05T10:03:21;0.90;;;0.60;;
36185;SDS011;22228;53.222;7.446;2022-08-05T10:06:05;2.10;;;0.50;;
36185;SDS011;22228;53.222;7.446;2022-08-05T10:08:35;4.73;;;0.93;;
36185;SDS011;22228;53.222;7.446;2022-08-05T10:11:03;13.03;;;1.50;;
36185;SDS011;22228;53.222;7.446;2022-08-05T10:13:31;5.27;;;0.80;;
36185;SDS011;22228;53.222;7.446;2022-08-05T10:18:53;1.57;;;0.60;;
36185;SDS011;22228;53.222;7.446;2022-08-05T10:21:16;3.90;;;0.87;;
36185;SDS011;22228;53.222;7.446;2022-08-05T10:23:42;10.83;;;1.07;;
36185;SDS011;22228;53.222;7.446;2022-08-05T10:26:19;1.57;;;0.60;;
36185;SDS011;22228;53.222;7.446;2022-08-05T10:28:51;6.20;;;1.23;;
36185;SDS011;22228;53.222;7.446;2022-08-05T10:31:16;3.17;;;0.80;;
36185;SDS011;22228;53.222;7.446;2022-08-05T10:33:59;3.20;;;1.50;;
36185;SDS011;22228;53.222;7.446;2022-08-05T10:36:22;2.33;;;1.00;;
36185;SDS011;22228;53.222;7.446;2022-08-05T10:38:46;1.23;;;0.70;;
36185;SDS011;22228;53.222;7.446;2022-08-05T10:41:10;2.20;;;0.63;;
36185;SDS011;22228;53.222;7.446;2022-08-05T10:43:46;4.33;;;0.90;;
36185;SDS011;22228;53.222;7.446;2022-08-05T10:46:12;1.30;;;0.63;;
36185;SDS011;22228;53.222;7.446;2022-08-05T10:48:36;1.80;;;0.50;;
36185;SDS011;22228;53.222;7.446;2022-08-05T10:51:18;2.03;;;0.60;;
36185;SDS011;22228;53.222;7.446;2022-08-05T10:53:52;2.27;;;0.80;;
36185;SDS011;22228;53.222;7.446;2022-08-05T10:56:20;1.50;;;0.50;;
36185;SDS011;22228;53.222;7.446;2022-08-05T10:58:49;1.83;;;0.70;;
36185;SDS011;22228;53.222;7.446;2022-08-05T11:01:44;4.77;;;0.67;;
36185;SDS011;22228;53.222;7.446;2022-08-05T11:04:25;2.37;;;0.50;;
36185;SDS011;22228;53.222;7.446;2022-08-05T11:07:03;4.60;;;0.70;;
36185;SDS011;22228;53.222;7.446;2022-08-05T11:09:27;1.53;;;0.60;;
36185;SDS011;22228;53.222;7.446;2022-08-05T11:15:20;2.17;;;0.50;;
36185;SDS011;22228;53.222;7.446;2022-08-05T11:18:06;0.80;;;0.47;;
36185;SDS011;22228;53.222;7.446;2022-08-05T11:20:35;1.53;;;0.47;;
36185;SDS011;22228;53.222;7.446;2022-08-05T11:26:09;2.70;;;0.50;;
36185;SDS011;22228;53.222;7.446;2022-08-05T11:28:52;0.30;;;0.30;;
36185;SDS011;22228;53.222;7.446;2022-08-05T11:31:16;2.20;;;0.30;;
36185;SDS011;22228;53.222;7.446;2022-08-05T11:34:07;0.87;;;0.37;;
36185;SDS011;22228;53.222;7.446;2022-08-05T11:36:42;2.93;;;0.40;;
36185;SDS011;22228;53.222;7.446;2022-08-05T11:39:14;3.50;;;0.57;;
36185;SDS011;22228;53.222;7.446;2022-08-05T11:41:38;0.73;;;0.30;;
36185;SDS011;22228;53.222;7.446;2022-08-05T11:44:21;0.20;;;0.20;;
36185;SDS011;22228;53.222;7.446;2022-08-05T11:47:10;2.30;;;0.40;;
36185;SDS011;22228;53.222;7.446;2022-08-05T11:49:41;0.60;;;0.30;;
36185;SDS011;22228;53.222;7.446;2022-08-05T11:52:10;1.13;;;0.20;;
36185;SDS011;22228;53.222;7.446;2022-08-05T11:54:34;2.17;;;0.20;;
36185;SDS011;22228;53.222;7.446;2022-08-05T11:57:00;1.17;;;0.30;;
36185;SDS011;22228;53.222;7.446;2022-08-05T11:59:43;0.40;;;0.20;;
36185;SDS011;22228;53.222;7.446;2022-08-05T12:02:10;1.67;;;0.20;;
36185;SDS011;22228;53.222;7.446;2022-08-05T12:04:51;1.23;;;0.87;;
36185;SDS011;22228;53.222;7.446;2022-08-05T12:07:19;0.30;;;0.20;;
36185;SDS011;22228;53.222;7.446;2022-08-05T12:10:04;0.53;;;0.20;;
36185;SDS011;22228;53.222;7.446;2022-08-05T12:12:31;4.03;;;0.40;;
36185;SDS011;22228;53.222;7.446;2022-08-05T12:14:54;1.97;;;0.20;;
36185;SDS011;22228;53.222;7.446;2022-08-05T12:17:16;0.83;;;0.10;;
36185;SDS011;22228;53.222;7.446;2022-08-05T12:19:59;1.30;;;0.20;;
36185;SDS011;22228;53.222;7.446;2022-08-05T12:22:42;1.93;;;0.23;;
36185;SDS011;22228;53.222;7.446;2022-08-05T12:25:07;0.40;;;0.20;;
36185;SDS011;22228;53.222;7.446;2022-08-05T12:27:34;0.93;;;0.20;;
36185;SDS011;22228;53.222;7.446;2022-08-05T12:30:13;0.40;;;0.10;;
36185;SDS011;22228;53.222;7.446;2022-08-05T12:32:42;0.40;;;0.20;;
36185;SDS011;22228;53.222;7.446;2022-08-05T12:35:10;0.33;;;0.20;;
36185;SDS011;22228;53.222;7.446;2022-08-05T12:37:41;1.53;;;0.20;;
36185;SDS011;22228;53.222;7.446;2022-08-05T12:40:07;0.97;;;0.30;;
36185;SDS011;22228;53.222;7.446;2022-08-05T12:42:47;1.90;;;0.20;;
36185;SDS011;22228;53.222;7.446;2022-08-05T12:45:09;2.27;;;0.40;;
36185;SDS011;22228;53.222;7.446;2022-08-05T12:47:35;1.83;;;0.30;;
36185;SDS011;22228;53.222;7.446;2022-08-05T12:50:18;4.17;;;0.40;;
36185;SDS011;22228;53.222;7.446;2022-08-05T12:52:40;54.77;;;3.73;;
36185;SDS011;22228;53.222;7.446;2022-08-05T12:55:17;4.40;;;0.20;;
36185;SDS011;22228;53.222;7.446;2022-08-05T12:57:42;0.77;;;0.20;;
36185;SDS011;22228;53.222;7.446;2022-08-05T13:00:26;1.70;;;0.20;;
36185;SDS011;22228;53.222;7.446;2022-08-05T13:03:09;0.73;;;0.40;;
36185;SDS011;22228;53.222;7.446;2022-08-05T13:05:34;0.50;;;0.10;;
36185;SDS011;22228;53.222;7.446;2022-08-05T13:07:57;1.37;;;0.40;;
36185;SDS011;22228;53.222;7.446;2022-08-05T13:10:22;0.77;;;0.20;;
36185;SDS011;22228;53.222;7.446;2022-08-05T13:12:44;2.63;;;0.20;;
36185;SDS011;22228;53.222;7.446;2022-08-05T13:15:17;1.80;;;0.30;;
36185;SDS011;22228;53.222;7.446;2022-08-05T13:17:55;3.17;;;0.20;;
36185;SDS011;22228;53.222;7.446;2022-08-05T13:20:19;0.90;;;0.20;;
36185;SDS011;22228;53.222;7.446;2022-08-05T13:22:47;2.07;;;0.20;;
36185;SDS011;22228;53.222;7.446;2022-08-05T13:25:11;1.47;;;0.20;;
36185;SDS011;22228;53.222;7.446;2022-08-05T13:27:46;2.57;;;0.30;;
36185;SDS011;22228;53.222;7.446;2022-08-05T13:30:10;0.80;;;0.30;;
36185;SDS011;22228;53.222;7.446;2022-08-05T13:32:53;2.47;;;0.30;;
36185;SDS011;22228;53.222;7.446;2022-08-05T13:35:16;1.97;;;0.20;;
36185;SDS011;22228;53.222;7.446;2022-08-05T13:37:59;2.70;;;0.30;;
36185;SDS011;22228;53.222;7.446;2022-08-05T13:40:25;1.30;;;0.30;;
36185;SDS011;22228;53.222;7.446;2022-08-05T13:43:09;0.37;;;0.20;;
36185;SDS011;22228;53.222;7.446;2022-08-05T13:45:31;1.60;;;0.13;;
36185;SDS011;22228;53.222;7.446;2022-08-05T13:48:03;0.10;;;0.10;;
36185;SDS011;22228;53.222;7.446;2022-08-05T13:50:45;0.60;;;0.20;;
36185;SDS011;22228;53.222;7.446;2022-08-05T13:53:07;0.83;;;0.20;;
36185;SDS011;22228;53.222;7.446;2022-08-05T13:55:35;1.13;;;0.20;;
36185;SDS011;22228;53.222;7.446;2022-08-05T13:58:09;2.70;;;0.20;;
36185;SDS011;22228;53.222;7.446;2022-08-05T14:00:31;1.07;;;0.20;;
36185;SDS011;22228;53.222;7.446;2022-08-05T14:02:56;3.23;;;0.33;;
36185;SDS011;22228;53.222;7.446;2022-08-05T14:05:20;2.40;;;0.20;;
36185;SDS011;22228;53.222;7.446;2022-08-05T14:08:03;1.57;;;0.50;;
36185;SDS011;22228;53.222;7.446;2022-08-05T14:10:40;1.57;;;0.30;;
36185;SDS011;22228;53.222;7.446;2022-08-05T14:13:03;1.07;;;0.30;;
36185;SDS011;22228;53.222;7.446;2022-08-05T14:15:28;1.20;;;0.30;;
36185;SDS011;22228;53.222;7.446;2022-08-05T14:18:10;1.70;;;0.33;;
36185;SDS011;22228;53.222;7.446;2022-08-05T14:20:38;1.23;;;0.20;;
36185;SDS011;22228;53.222;7.446;2022-08-05T14:23:07;0.30;;;0.20;;
36185;SDS011;22228;53.222;7.446;2022-08-05T14:25:29;2.30;;;0.20;;
36185;SDS011;22228;53.222;7.446;2022-08-05T14:27:51;2.17;;;0.30;;
36185;SDS011;22228;53.222;7.446;2022-08-05T14:30:13;2.23;;;0.30;;
36185;SDS011;22228;53.222;7.446;2022-08-05T14:32:41;2.10;;;0.30;;
36185;SDS011;22228;53.222;7.446;2022-08-05T14:35:04;0.43;;;0.20;;
36185;SDS011;22228;53.222;7.446;2022-08-05T14:37:30;1.53;;;0.27;;
36185;SDS011;22228;53.222;7.446;2022-08-05T14:40:09;3.17;;;0.53;;
36185;SDS011;22228;53.222;7.446;2022-08-05T14:42:36;1.90;;;0.30;;
36185;SDS011;22228;53.222;7.446;2022-08-05T14:45:02;2.23;;;0.40;;
36185;SDS011;22228;53.222;7.446;2022-08-05T14:47:28;0.53;;;0.20;;
36185;SDS011;22228;53.222;7.446;2022-08-05T14:50:11;0.40;;;0.20;;
36185;SDS011;22228;53.222;7.446;2022-08-05T14:52:38;0.60;;;0.20;;
36185;SDS011;22228;53.222;7.446;2022-08-05T14:55:13;1.20;;;0.40;;
36185;SDS011;22228;53.222;7.446;2022-08-05T14:57:38;0.70;;;0.20;;
36185;SDS011;22228;53.222;7.446;2022-08-05T15:00:15;1.43;;;0.30;;
36185;SDS011;22228;53.222;7.446;2022-08-05T15:02:39;0.40;;;0.30;;
36185;SDS011;22228;53.222;7.446;2022-08-05T15:05:01;1.83;;;0.20;;
36185;SDS011;22228;53.222;7.446;2022-08-05T15:07:33;2.97;;;0.40;;
36185;SDS011;22228;53.222;7.446;2022-08-05T15:10:16;0.93;;;0.23;;
36185;SDS011;22228;53.222;7.446;2022-08-05T15:12:48;1.93;;;0.40;;